Terminal Aerodrome Forecast
Issued by NWS

Home | Current Version | Previous Version | Text Only | Print | Product List | Glossary On
Versions: 1 2 3 4 5 6 7 8 9 10 11 12 13 14 15 16 17 18
000
FTUS41 KPBZ 242320
TAFBVI
TAF
KBVI 242320Z 2500/2524 36005KT P6SM SCT150
     FM251000 07005KT P6SM BKN080
     FM252200 09005KT P6SM -SHRA OVC035
      AMD NOT SKED 2502/2512=

USA.gov is the U.S. government's official web portal to all federal, state and local government web resources and services.